createdAt,value
2022-09-18T00:01:16.208Z,92.73
2022-09-18T00:03:43.640Z,92.64
2022-09-18T00:06:20.483Z,92.91
2022-09-18T00:08:52.234Z,92.87
2022-09-18T00:11:22.338Z,92.72
2022-09-18T00:13:50.610Z,92.81
2022-09-18T00:16:20.176Z,92.85
2022-09-18T00:18:48.094Z,92.97
2022-09-18T00:21:18.222Z,93.02
2022-09-18T00:23:46.128Z,93.08
2022-09-18T00:26:15.223Z,93.35
2022-09-18T00:28:42.412Z,93.21
2022-09-18T00:31:15.634Z,93.39
2022-09-18T00:33:43.292Z,93.27
2022-09-18T00:36:13.428Z,93.12
2022-09-18T00:38:41.146Z,93.13
2022-09-18T00:41:13.176Z,93.40
2022-09-18T00:43:40.569Z,93.60
2022-09-18T00:46:36.763Z,93.75
2022-09-18T00:49:25.402Z,93.65
2022-09-18T00:51:55.613Z,93.92
2022-09-18T00:54:31.772Z,94.08
2022-09-18T00:57:10.252Z,93.97
2022-09-18T00:59:39.938Z,94.24
2022-09-18T01:02:06.767Z,93.97
2022-09-18T01:04:34.044Z,94.39
2022-09-18T01:07:35.354Z,94.41
2022-09-18T01:10:17.448Z,94.44
2022-09-18T01:13:02.164Z,94.36
2022-09-18T01:15:54.636Z,94.25
2022-09-18T01:18:21.681Z,94.09
2022-09-18T01:21:04.554Z,94.33
2022-09-18T01:23:52.648Z,93.70
2022-09-18T01:26:45.832Z,93.75
2022-09-18T01:29:23.640Z,93.90
2022-09-18T01:31:56.504Z,94.05
2022-09-18T01:34:44.930Z,94.35
2022-09-18T01:37:17.067Z,94.40
2022-09-18T01:39:57.097Z,94.92
2022-09-18T01:42:28.646Z,95.14
2022-09-18T01:44:59.336Z,94.98
2022-09-18T01:47:32.167Z,95.01
2022-09-18T01:50:01.770Z,94.76
2022-09-18T01:52:35.244Z,94.82
2022-09-18T01:55:06.913Z,94.42
2022-09-18T01:57:46.287Z,94.76
2022-09-18T02:00:14.488Z,94.68
2022-09-18T02:02:51.959Z,94.76
2022-09-18T02:05:43.523Z,94.49
2022-09-18T02:08:27.059Z,94.46
2022-09-18T02:11:08.594Z,94.66
2022-09-18T02:13:40.536Z,94.65
2022-09-18T02:16:18.283Z,94.70
2022-09-18T02:18:51.205Z,94.54
2022-09-18T02:21:26.259Z,94.30
2022-09-18T02:23:56.471Z,94.58
2022-09-18T02:26:24.089Z,94.82
2022-09-18T02:28:51.093Z,94.78
2022-09-18T02:31:18.361Z,94.98
2022-09-18T02:33:45.397Z,94.94
2022-09-18T02:36:32.463Z,95.05
2022-09-18T02:39:28.534Z,95.30
2022-09-18T02:42:10.536Z,95.18
2022-09-18T02:45:06.591Z,95.04
2022-09-18T02:48:10.663Z,95.26
2022-09-18T02:51:10.851Z,95.14
2022-09-18T02:54:12.069Z,95.11
2022-09-18T02:56:52.907Z,95.19
2022-09-18T02:59:26.633Z,95.39
2022-09-18T03:01:58.826Z,94.93
2022-09-18T03:04:28.013Z,94.98
2022-09-18T03:07:06.581Z,95.16
2022-09-18T03:09:40.096Z,95.45
2022-09-18T03:12:08.818Z,95.67
2022-09-18T03:14:41.203Z,95.96
2022-09-18T03:17:09.493Z,95.93
2022-09-18T03:19:36.277Z,95.53
2022-09-18T03:22:03.422Z,95.72
2022-09-18T03:24:34.144Z,95.60
2022-09-18T03:27:02.945Z,95.88
2022-09-18T03:29:30.064Z,96.16
2022-09-18T03:31:57.866Z,96.05
2022-09-18T03:34:24.953Z,95.66
2022-09-18T03:36:51.941Z,95.75
2022-09-18T03:39:19.312Z,95.60
2022-09-18T03:41:47.759Z,95.79
2022-09-18T03:44:14.685Z,95.77
2022-09-18T03:46:44.234Z,96.10
2022-09-18T03:49:11.191Z,96.08
2022-09-18T03:51:40.202Z,96.16
2022-09-18T03:54:08.791Z,95.78
2022-09-18T03:56:58.431Z,95.77
2022-09-18T04:00:00.928Z,95.67
2022-09-18T04:02:43.423Z,95.48
2022-09-18T04:05:29.320Z,95.66
2022-09-18T04:08:14.769Z,95.45
2022-09-18T04:10:47.464Z,95.47
2022-09-18T04:13:14.611Z,95.28
2022-09-18T04:15:41.681Z,95.31
2022-09-18T04:18:09.429Z,95.23
2022-09-18T04:20:36.223Z,95.12
2022-09-18T04:23:05.350Z,95.20
2022-09-18T04:25:34.034Z,94.85
2022-09-18T04:28:01.591Z,94.74
2022-09-18T04:30:28.880Z,94.74
2022-09-18T04:32:55.922Z,94.96
2022-09-18T04:35:24.712Z,95.07
2022-09-18T04:37:51.580Z,94.96
2022-09-18T04:40:18.630Z,94.63
2022-09-18T04:42:46.541Z,94.12
2022-09-18T04:45:13.688Z,94.37
2022-09-18T04:47:41.340Z,94.54
2022-09-18T04:50:08.969Z,94.74
2022-09-18T04:52:36.065Z,94.88
2022-09-18T04:55:04.429Z,94.19
2022-09-18T04:57:32.148Z,93.76
2022-09-18T04:59:59.830Z,93.68
2022-09-18T05:02:26.930Z,93.02
2022-09-18T05:04:54.148Z,93.57
2022-09-18T05:07:34.482Z,93.94
2022-09-18T05:10:01.874Z,94.38
2022-09-18T05:12:31.018Z,94.40
2022-09-18T05:14:58.286Z,95.20
2022-09-18T05:17:25.218Z,95.89
2022-09-18T05:19:59.917Z,96.46
2022-09-18T05:22:31.371Z,96.64
2022-09-18T05:24:58.294Z,96.98
2022-09-18T05:27:27.073Z,97.51
2022-09-18T05:29:55.489Z,97.95
2022-09-18T05:32:28.047Z,98.02
2022-09-18T05:34:55.900Z,98.14
2022-09-18T05:37:22.836Z,98.47
2022-09-18T05:39:53.610Z,98.12
2022-09-18T05:42:20.643Z,98.00
2022-09-18T05:44:47.464Z,98.11
2022-09-18T05:47:19.711Z,98.19
2022-09-18T05:49:46.582Z,97.79
2022-09-18T05:52:13.406Z,97.92
2022-09-18T05:54:40.954Z,97.70
2022-09-18T05:57:09.268Z,97.13
2022-09-18T05:59:36.136Z,97.37
2022-09-18T06:02:04.732Z,97.44
2022-09-18T06:05:07.486Z,97.14
2022-09-18T06:07:34.482Z,97.44
2022-09-18T06:10:01.400Z,96.85
2022-09-18T06:12:28.260Z,97.02
2022-09-18T06:14:55.389Z,97.24
2022-09-18T06:17:24.501Z,96.90
2022-09-18T06:19:54.238Z,96.80
2022-09-18T06:22:21.611Z,96.14
2022-09-18T06:24:48.734Z,96.18
2022-09-18T06:27:18.501Z,96.18
2022-09-18T06:29:45.568Z,96.37
2022-09-18T06:32:16.052Z,96.51
2022-09-18T06:34:43.042Z,96.45
2022-09-18T06:37:13.578Z,96.49
2022-09-18T06:39:43.737Z,95.24
2022-09-18T06:42:19.496Z,95.16
2022-09-18T06:45:15.576Z,94.49
2022-09-18T06:47:44.644Z,94.17
2022-09-18T06:50:12.724Z,94.01
2022-09-18T06:52:39.539Z,94.17
2022-09-18T06:55:06.926Z,92.96
2022-09-18T06:57:34.028Z,92.76
2022-09-18T07:00:01.022Z,92.72
2022-09-18T07:02:33.807Z,92.81
2022-09-18T07:05:25.624Z,92.75
2022-09-18T07:07:53.160Z,91.77
2022-09-18T07:10:20.405Z,91.02
2022-09-18T07:12:48.956Z,90.72
2022-09-18T07:15:20.909Z,89.71
2022-09-18T07:17:47.811Z,90.23
2022-09-18T07:20:17.080Z,90.25
2022-09-18T07:22:52.750Z,90.03
2022-09-18T07:25:20.637Z,89.96
2022-09-18T07:27:49.938Z,90.25
2022-09-18T07:30:18.953Z,89.46
2022-09-18T07:32:46.588Z,88.76
2022-09-18T07:35:17.570Z,88.84
2022-09-18T07:37:44.499Z,89.57
2022-09-18T07:40:17.367Z,91.26
2022-09-18T07:43:07.578Z,92.51
2022-09-18T07:45:36.687Z,93.51
2022-09-18T07:48:05.298Z,94.44
2022-09-18T07:50:36.296Z,95.53
2022-09-18T07:53:05.423Z,96.20
2022-09-18T07:55:37.000Z,97.30
2022-09-18T07:58:06.847Z,98.25
2022-09-18T08:01:11.870Z,99.77
2022-09-18T08:03:45.925Z,100.00
2022-09-18T08:06:12.858Z,100.00
2022-09-18T08:09:06.076Z,100.00
2022-09-18T08:11:54.167Z,100.00
2022-09-18T08:14:29.222Z,100.00
2022-09-18T08:17:22.321Z,100.00
2022-09-18T08:20:24.649Z,100.00
2022-09-18T08:22:54.650Z,100.00
2022-09-18T08:25:27.467Z,100.00
2022-09-18T08:28:13.722Z,100.00
2022-09-18T08:30:53.546Z,100.00
2022-09-18T08:33:20.972Z,100.00
2022-09-18T08:35:48.840Z,100.00
2022-09-18T08:38:33.278Z,100.00
2022-09-18T08:41:55.408Z,100.00
2022-09-18T08:44:40.418Z,100.00
2022-09-18T08:47:18.975Z,100.00
2022-09-18T08:49:54.500Z,100.00
2022-09-18T08:52:24.553Z,100.00
2022-09-18T08:55:15.035Z,100.00
2022-09-18T08:58:03.303Z,100.00
2022-09-18T09:00:38.724Z,100.00
2022-09-18T09:03:25.548Z,100.00
2022-09-18T09:05:58.770Z,100.00
2022-09-18T09:09:04.601Z,100.00
2022-09-18T09:11:34.046Z,100.00
2022-09-18T09:14:55.961Z,100.00
2022-09-18T09:17:41.693Z,100.00
2022-09-18T09:20:35.457Z,100.00
2022-09-18T09:23:12.744Z,100.00
2022-09-18T09:26:04.226Z,100.00
2022-09-18T09:29:10.250Z,100.00
2022-09-18T09:32:06.264Z,100.00
2022-09-18T09:34:58.354Z,100.00
2022-09-18T09:37:48.340Z,100.00
2022-09-18T09:40:32.513Z,100.00
2022-09-18T09:43:11.531Z,100.00
2022-09-18T09:45:46.250Z,100.00
2022-09-18T09:48:35.243Z,100.00
2022-09-18T09:51:05.458Z,100.00
2022-09-18T09:53:32.437Z,100.00
2022-09-18T09:56:26.436Z,100.00
2022-09-18T09:59:21.549Z,100.00
2022-09-18T10:02:37.245Z,100.00
2022-09-18T10:05:39.534Z,100.00
2022-09-18T10:08:27.362Z,100.00
2022-09-18T10:11:00.672Z,100.00
2022-09-18T10:13:40.318Z,100.00
2022-09-18T10:16:16.984Z,100.00
2022-09-18T10:18:47.238Z,100.00
2022-09-18T10:21:24.480Z,100.00
2022-09-18T10:24:15.952Z,100.00
2022-09-18T10:26:53.901Z,100.00
2022-09-18T10:29:21.038Z,100.00
2022-09-18T10:31:54.410Z,100.00
2022-09-18T10:34:42.435Z,100.00
2022-09-18T10:37:29.505Z,100.00
2022-09-18T10:40:37.331Z,100.00
2022-09-18T10:43:07.707Z,99.48
2022-09-18T10:45:41.849Z,98.50
2022-09-18T10:48:28.161Z,95.91
2022-09-18T10:50:57.603Z,97.81
2022-09-18T10:53:39.835Z,98.06
2022-09-18T10:56:20.960Z,97.73
2022-09-18T10:58:51.449Z,97.45
2022-09-18T11:01:19.599Z,97.14
2022-09-18T11:04:02.829Z,95.65
2022-09-18T11:06:35.889Z,94.06
2022-09-18T11:09:30.529Z,94.27
2022-09-18T11:11:57.719Z,95.29
2022-09-18T11:14:30.971Z,95.56
2022-09-18T11:17:05.450Z,94.88
2022-09-18T11:19:40.007Z,94.41
2022-09-18T11:22:45.358Z,96.63
2022-09-18T11:25:22.837Z,97.08
2022-09-18T11:27:58.037Z,95.64
2022-09-18T11:30:35.542Z,93.59
2022-09-18T11:33:27.095Z,93.98
2022-09-18T11:36:01.631Z,89.75
2022-09-18T11:38:31.954Z,90.82
2022-09-18T11:41:01.782Z,90.70
2022-09-18T11:43:41.212Z,92.82
2022-09-18T11:46:31.889Z,92.83
2022-09-18T11:49:07.712Z,93.85
2022-09-18T11:51:53.692Z,94.93
2022-09-18T11:54:42.306Z,94.07
2022-09-18T11:57:17.671Z,93.42
2022-09-18T11:59:55.154Z,94.47
2022-09-18T12:02:41.306Z,91.13
2022-09-18T12:05:58.997Z,93.11
2022-09-18T12:08:55.018Z,90.24
2022-09-18T12:12:00.848Z,89.08
2022-09-18T12:14:41.792Z,92.80
2022-09-18T12:17:34.691Z,92.66
2022-09-18T12:20:06.986Z,93.84
2022-09-18T12:22:41.747Z,94.10
2022-09-18T12:25:14.323Z,92.76
2022-09-18T12:28:41.343Z,91.92
2022-09-18T12:32:01.606Z,91.81
2022-09-18T12:34:54.857Z,91.14
2022-09-18T12:37:31.881Z,92.68
2022-09-18T12:40:24.901Z,90.43
2022-09-18T12:43:10.275Z,88.18
2022-09-18T12:45:42.292Z,90.11
2022-09-18T12:48:27.959Z,86.08
2022-09-18T12:51:01.005Z,83.09
2022-09-18T12:53:49.286Z,81.31
2022-09-18T12:56:16.299Z,81.20
2022-09-18T12:58:58.425Z,78.41
2022-09-18T13:01:31.778Z,75.57
2022-09-18T13:04:30.373Z,73.58
2022-09-18T13:07:26.399Z,75.09
2022-09-18T13:10:17.405Z,73.39
2022-09-18T13:13:15.478Z,70.80
2022-09-18T13:15:49.069Z,69.67
2022-09-18T13:18:19.559Z,69.77
2022-09-18T13:20:46.986Z,69.10
2022-09-18T13:23:27.790Z,70.25
2022-09-18T13:25:56.871Z,69.30
2022-09-18T13:28:27.551Z,69.25
2022-09-18T13:31:22.757Z,69.75
2022-09-18T13:34:01.943Z,69.24
2022-09-18T13:36:32.923Z,69.47
2022-09-18T13:39:04.827Z,69.88
2022-09-18T13:41:48.876Z,70.19
2022-09-18T13:44:28.518Z,71.54
2022-09-18T13:46:58.281Z,72.29
2022-09-18T13:49:32.115Z,71.19
2022-09-18T13:52:34.050Z,71.89
2022-09-18T13:55:13.062Z,71.75
2022-09-18T13:57:41.512Z,71.87
2022-09-18T14:00:20.561Z,70.17
2022-09-18T14:02:48.980Z,70.42
2022-09-18T14:05:38.536Z,71.31
2022-09-18T14:08:10.300Z,71.17
2022-09-18T14:10:54.906Z,71.94
2022-09-18T14:13:38.267Z,72.91
2022-09-18T14:16:20.596Z,72.73
2022-09-18T14:18:47.558Z,73.50
2022-09-18T14:21:17.629Z,73.38
2022-09-18T14:23:47.063Z,73.67
2022-09-18T14:26:29.547Z,73.87
2022-09-18T14:29:05.184Z,74.00
2022-09-18T14:31:49.053Z,74.25
2022-09-18T14:34:23.106Z,74.39
2022-09-18T14:36:55.699Z,73.22
2022-09-18T14:39:35.445Z,74.15
2022-09-18T14:42:23.515Z,74.14
2022-09-18T14:44:54.255Z,74.06
2022-09-18T14:47:23.753Z,74.20
2022-09-18T14:49:51.387Z,74.56
2022-09-18T14:52:22.569Z,75.24
2022-09-18T14:54:51.608Z,75.39
2022-09-18T14:57:26.152Z,76.11
2022-09-18T14:59:58.628Z,76.56
2022-09-18T15:02:52.617Z,77.14
2022-09-18T15:05:22.388Z,77.62
2022-09-18T15:08:07.195Z,78.15
2022-09-18T15:10:37.954Z,77.86
2022-09-18T15:13:09.337Z,78.52
2022-09-18T15:15:39.495Z,78.19
2022-09-18T15:18:24.026Z,78.58
2022-09-18T15:20:53.018Z,78.69
2022-09-18T15:23:27.617Z,79.38
2022-09-18T15:25:58.849Z,78.90
2022-09-18T15:28:28.931Z,79.40
2022-09-18T15:31:03.794Z,79.23
2022-09-18T15:33:35.096Z,79.29
2022-09-18T15:36:04.685Z,79.39
2022-09-18T15:38:45.748Z,79.30
2022-09-18T15:41:31.396Z,79.38
2022-09-18T15:43:58.479Z,78.76
2022-09-18T15:46:29.104Z,79.03
2022-09-18T15:49:00.392Z,79.22
2022-09-18T15:51:30.281Z,79.67
2022-09-18T15:54:03.333Z,79.69
2022-09-18T15:56:33.950Z,79.72
2022-09-18T15:59:04.275Z,80.06
2022-09-18T16:01:40.016Z,80.15
2022-09-18T16:04:24.278Z,79.82
2022-09-18T16:07:00.427Z,80.32
2022-09-18T16:09:38.209Z,80.62
2022-09-18T16:12:26.797Z,80.82
2022-09-18T16:14:56.677Z,80.60
2022-09-18T16:17:32.816Z,81.00
2022-09-18T16:20:27.114Z,81.08
2022-09-18T16:22:58.538Z,81.31
2022-09-18T16:25:29.137Z,81.47
2022-09-18T16:27:59.332Z,81.14
2022-09-18T16:30:28.005Z,80.95
2022-09-18T16:33:14.815Z,80.57
2022-09-18T16:35:41.833Z,80.56
2022-09-18T16:38:09.621Z,81.00
2022-09-18T16:40:36.795Z,80.94
2022-09-18T16:43:03.804Z,81.14
2022-09-18T16:45:31.042Z,81.26
2022-09-18T16:48:00.572Z,80.75
2022-09-18T16:50:28.114Z,80.59
2022-09-18T16:52:58.479Z,81.06
2022-09-18T16:55:29.042Z,81.01
2022-09-18T16:57:57.374Z,81.46
2022-09-18T17:00:25.013Z,81.52
2022-09-18T17:02:53.008Z,81.53
2022-09-18T17:05:20.024Z,81.64
2022-09-18T17:07:47.056Z,81.37
2022-09-18T17:10:13.980Z,81.75
2022-09-18T17:12:41.892Z,81.98
2022-09-18T17:15:10.279Z,81.89
2022-09-18T17:17:37.222Z,81.92
2022-09-18T17:20:05.599Z,81.83
2022-09-18T17:22:33.197Z,81.98
2022-09-18T17:25:00.015Z,82.03
2022-09-18T17:27:26.906Z,81.73
2022-09-18T17:29:54.284Z,82.19
2022-09-18T17:32:21.401Z,82.17
2022-09-18T17:34:48.403Z,81.47
2022-09-18T17:37:15.745Z,81.30
2022-09-18T17:39:42.655Z,81.46
2022-09-18T17:42:09.532Z,81.03
2022-09-18T17:44:37.154Z,81.16
2022-09-18T17:47:04.057Z,80.83
2022-09-18T17:49:34.844Z,80.86
2022-09-18T17:52:02.239Z,81.56
2022-09-18T17:54:29.144Z,81.66
2022-09-18T17:56:56.045Z,81.91
2022-09-18T17:59:23.133Z,81.61
2022-09-18T18:01:50.622Z,82.40
2022-09-18T18:04:18.015Z,82.44
2022-09-18T18:06:48.927Z,82.80
2022-09-18T18:09:16.397Z,83.10
2022-09-18T18:11:44.314Z,83.11
2022-09-18T18:14:11.633Z,82.52
2022-09-18T18:16:41.104Z,82.79
2022-09-18T18:19:12.472Z,83.38
2022-09-18T18:21:41.293Z,84.18
2022-09-18T18:24:12.940Z,84.50
2022-09-18T18:26:40.676Z,84.25
2022-09-18T18:29:11.568Z,83.55
2022-09-18T18:31:40.662Z,82.36
2022-09-18T18:34:10.837Z,82.57
2022-09-18T18:36:40.043Z,82.20
2022-09-18T18:39:12.016Z,82.57
2022-09-18T18:41:39.730Z,82.47
2022-09-18T18:44:07.346Z,81.94
2022-09-18T18:46:36.473Z,82.22
2022-09-18T18:49:12.928Z,82.18
2022-09-18T18:51:47.524Z,82.61
2022-09-18T18:54:18.308Z,83.28
2022-09-18T18:56:47.060Z,83.51
2022-09-18T18:59:17.283Z,83.94
2022-09-18T19:01:45.320Z,84.16
2022-09-18T19:04:15.439Z,84.10
2022-09-18T19:06:44.454Z,84.38
2022-09-18T19:09:20.259Z,84.90
2022-09-18T19:11:49.759Z,84.77
2022-09-18T19:14:20.467Z,85.50
2022-09-18T19:16:48.711Z,85.69
2022-09-18T19:19:17.678Z,86.51
2022-09-18T19:21:44.795Z,87.33
2022-09-18T19:24:12.847Z,87.78
2022-09-18T19:26:41.213Z,88.64
2022-09-18T19:29:12.298Z,89.06
2022-09-18T19:31:41.134Z,89.87
2022-09-18T19:34:11.883Z,89.90
2022-09-18T19:36:39.955Z,91.30
2022-09-18T19:39:08.585Z,90.98
2022-09-18T19:41:47.503Z,92.06
2022-09-18T19:44:23.011Z,92.02
2022-09-18T19:46:52.293Z,92.39
2022-09-18T19:49:22.514Z,93.26
2022-09-18T19:51:49.402Z,94.06
2022-09-18T19:54:16.271Z,94.36
2022-09-18T19:56:48.307Z,94.56
2022-09-18T19:59:17.056Z,94.72
2022-09-18T20:01:44.887Z,95.15
2022-09-18T20:04:11.816Z,94.96
2022-09-18T20:06:40.504Z,95.27
2022-09-18T20:09:08.014Z,95.20
2022-09-18T20:11:35.355Z,95.19
2022-09-18T20:14:02.193Z,94.98
2022-09-18T20:16:29.646Z,94.72
2022-09-18T20:18:56.528Z,94.87
2022-09-18T20:21:24.168Z,94.00
2022-09-18T20:23:56.012Z,93.95
2022-09-18T20:26:22.691Z,93.54
2022-09-18T20:28:49.675Z,93.18
2022-09-18T20:31:17.092Z,93.10
2022-09-18T20:33:44.425Z,93.45
2022-09-18T20:36:12.118Z,93.35
2022-09-18T20:38:41.220Z,93.43
2022-09-18T20:41:16.070Z,93.55
2022-09-18T20:43:44.174Z,93.31
2022-09-18T20:46:15.879Z,92.83
2022-09-18T20:48:46.386Z,92.64
2022-09-18T20:51:14.850Z,93.09
2022-09-18T20:53:45.741Z,93.56
2022-09-18T20:56:14.547Z,93.73
2022-09-18T20:58:42.431Z,93.89
2022-09-18T21:01:12.151Z,94.26
2022-09-18T21:03:42.776Z,94.22
2022-09-18T21:06:22.437Z,94.75
2022-09-18T21:08:53.594Z,95.09
2022-09-18T21:11:28.527Z,95.42
2022-09-18T21:13:59.591Z,95.53
2022-09-18T21:16:29.681Z,95.72
2022-09-18T21:18:57.863Z,96.00
2022-09-18T21:21:26.978Z,96.28
2022-09-18T21:24:02.126Z,96.35
2022-09-18T21:26:35.568Z,96.53
2022-09-18T21:29:04.816Z,96.66
2022-09-18T21:31:35.581Z,96.80
2022-09-18T21:34:04.517Z,96.70
2022-09-18T21:36:38.553Z,97.14
2022-09-18T21:39:08.877Z,97.16
2022-09-18T21:41:38.071Z,97.25
2022-09-18T21:44:08.750Z,97.34
2022-09-18T21:46:38.064Z,97.22
2022-09-18T21:49:06.873Z,97.31
2022-09-18T21:51:35.182Z,97.47
2022-09-18T21:54:05.592Z,97.61
2022-09-18T21:56:33.312Z,97.72
2022-09-18T21:59:00.655Z,97.87
2022-09-18T22:01:33.663Z,97.35
2022-09-18T22:04:03.400Z,97.27
2022-09-18T22:06:36.437Z,97.20
2022-09-18T22:09:09.070Z,97.00
2022-09-18T22:11:37.006Z,96.75
2022-09-18T22:14:07.229Z,96.42
2022-09-18T22:16:34.757Z,96.08
2022-09-18T22:19:02.402Z,96.45
2022-09-18T22:21:33.275Z,96.49
2022-09-18T22:24:08.764Z,96.70
2022-09-18T22:26:41.389Z,97.19
2022-09-18T22:29:20.707Z,97.05
2022-09-18T22:31:49.300Z,96.92
2022-09-18T22:34:22.038Z,96.73
2022-09-18T22:36:49.726Z,96.83
2022-09-18T22:39:18.391Z,96.56
2022-09-18T22:41:45.509Z,96.33
2022-09-18T22:44:12.923Z,95.57
2022-09-18T22:46:42.519Z,95.09
2022-09-18T22:49:12.958Z,94.62
2022-09-18T22:51:40.762Z,93.92
2022-09-18T22:54:07.988Z,92.54
2022-09-18T22:56:46.718Z,91.95
2022-09-18T22:59:16.259Z,91.16
2022-09-18T23:01:51.935Z,90.96
2022-09-18T23:04:20.842Z,90.68
2022-09-18T23:06:48.546Z,89.70
2022-09-18T23:09:17.562Z,89.52
2022-09-18T23:11:46.436Z,89.43
2022-09-18T23:14:18.406Z,88.78
2022-09-18T23:16:45.945Z,88.69
2022-09-18T23:19:28.607Z,88.33
2022-09-18T23:21:55.914Z,88.32
2022-09-18T23:24:23.598Z,88.14
2022-09-18T23:26:52.283Z,88.20
2022-09-18T23:29:22.765Z,88.07
2022-09-18T23:31:53.136Z,88.48
2022-09-18T23:34:23.587Z,88.09
2022-09-18T23:36:52.937Z,88.12
2022-09-18T23:39:28.690Z,88.55
2022-09-18T23:41:58.876Z,87.94
2022-09-18T23:44:28.593Z,88.12
2022-09-18T23:46:56.034Z,88.08
2022-09-18T23:49:23.835Z,88.37
2022-09-18T23:51:54.058Z,88.24
2022-09-18T23:54:29.781Z,88.50
2022-09-18T23:56:56.834Z,88.32
2022-09-18T23:59:25.797Z,88.74
